sensor_id;sensor_type;location;lat;lon;timestamp;P1;durP1;ratioP1;P2;durP2;ratioP2
70967;SDS011;58629;48.808;8.820;2023-11-19T00:01:52;1.33;;;0.67;;
70967;SDS011;58629;48.808;8.820;2023-11-19T00:04:18;0.90;;;0.50;;
70967;SDS011;58629;48.808;8.820;2023-11-19T00:06:44;0.95;;;0.30;;
70967;SDS011;58629;48.808;8.820;2023-11-19T00:09:09;0.57;;;0.30;;
70967;SDS011;58629;48.808;8.820;2023-11-19T00:11:35;0.37;;;0.20;;
70967;SDS011;58629;48.808;8.820;2023-11-19T00:14:01;1.40;;;0.20;;
70967;SDS011;58629;48.808;8.820;2023-11-19T00:16:26;0.17;;;0.07;;
70967;SDS011;58629;48.808;8.820;2023-11-19T00:18:51;0.87;;;0.10;;
70967;SDS011;58629;48.808;8.820;2023-11-19T00:21:17;0.20;;;0.10;;
70967;SDS011;58629;48.808;8.820;2023-11-19T00:23:42;0.10;;;0.00;;
70967;SDS011;58629;48.808;8.820;2023-11-19T00:26:08;0.17;;;0.00;;
70967;SDS011;58629;48.808;8.820;2023-11-19T00:28:33;0.10;;;0.00;;
70967;SDS011;58629;48.808;8.820;2023-11-19T00:30:59;0.10;;;0.00;;
70967;SDS011;58629;48.808;8.820;2023-11-19T00:33:24;0.00;;;0.00;;
70967;SDS011;58629;48.808;8.820;2023-11-19T00:35:49;0.10;;;0.00;;
70967;SDS011;58629;48.808;8.820;2023-11-19T00:38:15;0.00;;;0.00;;
70967;SDS011;58629;48.808;8.820;2023-11-19T00:40:40;0.63;;;0.00;;
70967;SDS011;58629;48.808;8.820;2023-11-19T00:43:06;0.52;;;0.32;;
70967;SDS011;58629;48.808;8.820;2023-11-19T00:45:32;0.00;;;0.00;;
70967;SDS011;58629;48.808;8.820;2023-11-19T00:47:57;0.00;;;0.00;;
70967;SDS011;58629;48.808;8.820;2023-11-19T00:50:24;0.20;;;0.00;;
70967;SDS011;58629;48.808;8.820;2023-11-19T00:52:50;0.35;;;0.00;;
70967;SDS011;58629;48.808;8.820;2023-11-19T00:55:15;0.00;;;0.00;;
70967;SDS011;58629;48.808;8.820;2023-11-19T00:57:40;0.63;;;0.00;;
70967;SDS011;58629;48.808;8.820;2023-11-19T01:00:06;0.10;;;0.00;;
70967;SDS011;58629;48.808;8.820;2023-11-19T01:02:40;0.00;;;0.00;;
70967;SDS011;58629;48.808;8.820;2023-11-19T01:05:07;0.37;;;0.00;;
70967;SDS011;58629;48.808;8.820;2023-11-19T01:07:33;0.00;;;0.00;;
70967;SDS011;58629;48.808;8.820;2023-11-19T01:09:58;0.07;;;0.00;;
70967;SDS011;58629;48.808;8.820;2023-11-19T01:12:23;0.00;;;0.00;;
70967;SDS011;58629;48.808;8.820;2023-11-19T01:14:49;0.00;;;0.00;;
70967;SDS011;58629;48.808;8.820;2023-11-19T01:17:15;0.00;;;0.00;;
70967;SDS011;58629;48.808;8.820;2023-11-19T01:19:41;0.00;;;0.00;;
70967;SDS011;58629;48.808;8.820;2023-11-19T01:22:06;0.00;;;0.00;;
70967;SDS011;58629;48.808;8.820;2023-11-19T01:24:31;0.60;;;0.00;;
70967;SDS011;58629;48.808;8.820;2023-11-19T01:26:57;0.10;;;0.00;;
70967;SDS011;58629;48.808;8.820;2023-11-19T01:29:24;0.00;;;0.00;;
70967;SDS011;58629;48.808;8.820;2023-11-19T01:31:50;0.20;;;0.00;;
70967;SDS011;58629;48.808;8.820;2023-11-19T01:34:16;0.30;;;0.00;;
70967;SDS011;58629;48.808;8.820;2023-11-19T01:36:41;0.00;;;0.00;;
70967;SDS011;58629;48.808;8.820;2023-11-19T01:39:07;0.00;;;0.00;;
70967;SDS011;58629;48.808;8.820;2023-11-19T01:41:35;0.20;;;0.00;;
70967;SDS011;58629;48.808;8.820;2023-11-19T01:44:01;0.10;;;0.00;;
70967;SDS011;58629;48.808;8.820;2023-11-19T01:46:27;0.00;;;0.00;;
70967;SDS011;58629;48.808;8.820;2023-11-19T01:48:52;0.10;;;0.00;;
70967;SDS011;58629;48.808;8.820;2023-11-19T01:51:19;0.10;;;0.00;;
70967;SDS011;58629;48.808;8.820;2023-11-19T01:53:45;0.10;;;0.00;;
70967;SDS011;58629;48.808;8.820;2023-11-19T01:56:11;0.00;;;0.00;;
70967;SDS011;58629;48.808;8.820;2023-11-19T01:58:39;0.00;;;0.00;;
70967;SDS011;58629;48.808;8.820;2023-11-19T02:01:06;0.10;;;0.00;;
70967;SDS011;58629;48.808;8.820;2023-11-19T02:03:32;0.00;;;0.00;;
70967;SDS011;58629;48.808;8.820;2023-11-19T02:05:59;0.50;;;0.00;;
70967;SDS011;58629;48.808;8.820;2023-11-19T02:08:24;0.10;;;0.00;;
70967;SDS011;58629;48.808;8.820;2023-11-19T02:10:51;0.00;;;0.00;;
70967;SDS011;58629;48.808;8.820;2023-11-19T02:13:16;0.35;;;0.00;;
70967;SDS011;58629;48.808;8.820;2023-11-19T02:15:42;0.00;;;0.00;;
70967;SDS011;58629;48.808;8.820;2023-11-19T02:18:18;0.00;;;0.00;;
70967;SDS011;58629;48.808;8.820;2023-11-19T02:20:51;0.00;;;0.00;;
70967;SDS011;58629;48.808;8.820;2023-11-19T02:23:17;0.00;;;0.00;;
70967;SDS011;58629;48.808;8.820;2023-11-19T02:25:52;0.00;;;0.00;;
70967;SDS011;58629;48.808;8.820;2023-11-19T02:28:30;0.05;;;0.00;;
70967;SDS011;58629;48.808;8.820;2023-11-19T02:30:57;0.20;;;0.00;;
70967;SDS011;58629;48.808;8.820;2023-11-19T02:33:23;0.00;;;0.00;;
70967;SDS011;58629;48.808;8.820;2023-11-19T02:35:49;0.00;;;0.00;;
70967;SDS011;58629;48.808;8.820;2023-11-19T02:38:15;0.22;;;0.00;;
70967;SDS011;58629;48.808;8.820;2023-11-19T02:40:41;0.00;;;0.00;;
70967;SDS011;58629;48.808;8.820;2023-11-19T02:43:06;0.00;;;0.00;;
70967;SDS011;58629;48.808;8.820;2023-11-19T02:45:33;0.03;;;0.00;;
70967;SDS011;58629;48.808;8.820;2023-11-19T02:47:58;0.10;;;0.00;;
70967;SDS011;58629;48.808;8.820;2023-11-19T02:50:26;0.00;;;0.00;;
70967;SDS011;58629;48.808;8.820;2023-11-19T02:52:53;0.00;;;0.00;;
70967;SDS011;58629;48.808;8.820;2023-11-19T02:55:23;0.50;;;0.00;;
70967;SDS011;58629;48.808;8.820;2023-11-19T02:57:49;0.00;;;0.00;;
70967;SDS011;58629;48.808;8.820;2023-11-19T03:00:18;0.00;;;0.00;;
70967;SDS011;58629;48.808;8.820;2023-11-19T03:02:48;0.00;;;0.00;;
70967;SDS011;58629;48.808;8.820;2023-11-19T03:05:23;0.00;;;0.00;;
70967;SDS011;58629;48.808;8.820;2023-11-19T03:07:48;0.05;;;0.00;;
70967;SDS011;58629;48.808;8.820;2023-11-19T03:10:14;0.97;;;0.00;;
70967;SDS011;58629;48.808;8.820;2023-11-19T03:12:43;0.00;;;0.00;;
70967;SDS011;58629;48.808;8.820;2023-11-19T03:15:10;0.00;;;0.00;;
70967;SDS011;58629;48.808;8.820;2023-11-19T03:17:38;0.00;;;0.00;;
70967;SDS011;58629;48.808;8.820;2023-11-19T03:20:07;0.00;;;0.00;;
70967;SDS011;58629;48.808;8.820;2023-11-19T03:22:42;1.05;;;0.00;;
70967;SDS011;58629;48.808;8.820;2023-11-19T03:25:09;0.10;;;0.00;;
70967;SDS011;58629;48.808;8.820;2023-11-19T03:27:38;0.00;;;0.00;;
70967;SDS011;58629;48.808;8.820;2023-11-19T03:30:04;0.17;;;0.00;;
70967;SDS011;58629;48.808;8.820;2023-11-19T03:32:34;0.35;;;0.00;;
70967;SDS011;58629;48.808;8.820;2023-11-19T03:35:00;0.30;;;0.00;;
70967;SDS011;58629;48.808;8.820;2023-11-19T03:37:26;0.10;;;0.00;;
70967;SDS011;58629;48.808;8.820;2023-11-19T03:39:56;0.10;;;0.00;;
70967;SDS011;58629;48.808;8.820;2023-11-19T03:42:24;0.10;;;0.00;;
70967;SDS011;58629;48.808;8.820;2023-11-19T03:44:53;0.00;;;0.00;;
70967;SDS011;58629;48.808;8.820;2023-11-19T03:47:19;0.00;;;0.00;;
70967;SDS011;58629;48.808;8.820;2023-11-19T03:49:48;0.00;;;0.00;;
70967;SDS011;58629;48.808;8.820;2023-11-19T03:52:14;0.00;;;0.00;;
70967;SDS011;58629;48.808;8.820;2023-11-19T03:54:39;0.10;;;0.00;;
70967;SDS011;58629;48.808;8.820;2023-11-19T03:57:05;0.00;;;0.00;;
70967;SDS011;58629;48.808;8.820;2023-11-19T03:59:30;0.13;;;0.00;;
70967;SDS011;58629;48.808;8.820;2023-11-19T04:01:55;0.00;;;0.00;;
70967;SDS011;58629;48.808;8.820;2023-11-19T04:04:21;0.07;;;0.00;;
70967;SDS011;58629;48.808;8.820;2023-11-19T04:06:48;0.00;;;0.00;;
70967;SDS011;58629;48.808;8.820;2023-11-19T04:09:13;0.10;;;0.00;;
70967;SDS011;58629;48.808;8.820;2023-11-19T04:11:38;0.00;;;0.00;;
70967;SDS011;58629;48.808;8.820;2023-11-19T04:14:05;0.05;;;0.00;;
70967;SDS011;58629;48.808;8.820;2023-11-19T04:16:30;0.00;;;0.00;;
70967;SDS011;58629;48.808;8.820;2023-11-19T04:18:55;0.07;;;0.00;;
70967;SDS011;58629;48.808;8.820;2023-11-19T04:21:21;0.00;;;0.00;;
70967;SDS011;58629;48.808;8.820;2023-11-19T04:23:47;0.00;;;0.00;;
70967;SDS011;58629;48.808;8.820;2023-11-19T04:26:13;0.10;;;0.00;;
70967;SDS011;58629;48.808;8.820;2023-11-19T04:28:38;0.10;;;0.00;;
70967;SDS011;58629;48.808;8.820;2023-11-19T04:31:04;0.20;;;0.00;;
70967;SDS011;58629;48.808;8.820;2023-11-19T04:33:30;0.32;;;0.00;;
70967;SDS011;58629;48.808;8.820;2023-11-19T04:35:56;0.10;;;0.00;;
70967;SDS011;58629;48.808;8.820;2023-11-19T04:38:21;0.30;;;0.00;;
70967;SDS011;58629;48.808;8.820;2023-11-19T04:40:46;0.00;;;0.00;;
70967;SDS011;58629;48.808;8.820;2023-11-19T04:43:12;0.57;;;0.00;;
70967;SDS011;58629;48.808;8.820;2023-11-19T04:45:38;0.00;;;0.00;;
70967;SDS011;58629;48.808;8.820;2023-11-19T04:48:04;0.00;;;0.00;;
70967;SDS011;58629;48.808;8.820;2023-11-19T04:50:30;0.00;;;0.00;;
70967;SDS011;58629;48.808;8.820;2023-11-19T04:52:56;0.00;;;0.00;;
70967;SDS011;58629;48.808;8.820;2023-11-19T04:55:21;0.20;;;0.00;;
70967;SDS011;58629;48.808;8.820;2023-11-19T04:57:47;0.95;;;0.00;;
70967;SDS011;58629;48.808;8.820;2023-11-19T05:00:12;0.30;;;0.30;;
70967;SDS011;58629;48.808;8.820;2023-11-19T05:02:38;2.15;;;0.10;;
70967;SDS011;58629;48.808;8.820;2023-11-19T05:05:04;0.20;;;0.00;;
70967;SDS011;58629;48.808;8.820;2023-11-19T05:07:30;0.40;;;0.00;;
70967;SDS011;58629;48.808;8.820;2023-11-19T05:09:55;0.00;;;0.00;;
70967;SDS011;58629;48.808;8.820;2023-11-19T05:12:20;0.10;;;0.00;;
70967;SDS011;58629;48.808;8.820;2023-11-19T05:14:46;0.33;;;0.00;;
70967;SDS011;58629;48.808;8.820;2023-11-19T05:17:15;0.47;;;0.00;;
70967;SDS011;58629;48.808;8.820;2023-11-19T05:19:40;0.10;;;0.00;;
70967;SDS011;58629;48.808;8.820;2023-11-19T05:22:06;0.83;;;0.00;;
70967;SDS011;58629;48.808;8.820;2023-11-19T05:24:31;0.10;;;0.00;;
70967;SDS011;58629;48.808;8.820;2023-11-19T05:26:57;0.85;;;0.10;;
70967;SDS011;58629;48.808;8.820;2023-11-19T05:29:23;0.10;;;0.00;;
70967;SDS011;58629;48.808;8.820;2023-11-19T05:31:48;0.30;;;0.10;;
70967;SDS011;58629;48.808;8.820;2023-11-19T05:34:14;0.40;;;0.10;;
70967;SDS011;58629;48.808;8.820;2023-11-19T05:36:40;0.52;;;0.00;;
70967;SDS011;58629;48.808;8.820;2023-11-19T05:39:05;1.67;;;0.10;;
70967;SDS011;58629;48.808;8.820;2023-11-19T05:41:30;0.60;;;0.00;;
70967;SDS011;58629;48.808;8.820;2023-11-19T05:43:56;0.77;;;0.10;;
70967;SDS011;58629;48.808;8.820;2023-11-19T05:46:21;0.53;;;0.00;;
70967;SDS011;58629;48.808;8.820;2023-11-19T05:48:47;0.60;;;0.00;;
70967;SDS011;58629;48.808;8.820;2023-11-19T05:51:12;0.50;;;0.10;;
70967;SDS011;58629;48.808;8.820;2023-11-19T05:53:39;0.55;;;0.10;;
70967;SDS011;58629;48.808;8.820;2023-11-19T05:56:05;0.70;;;0.10;;
70967;SDS011;58629;48.808;8.820;2023-11-19T05:58:32;0.40;;;0.20;;
70967;SDS011;58629;48.808;8.820;2023-11-19T06:00:58;0.60;;;0.00;;
70967;SDS011;58629;48.808;8.820;2023-11-19T06:03:25;1.03;;;0.10;;
70967;SDS011;58629;48.808;8.820;2023-11-19T06:05:51;0.40;;;0.20;;
70967;SDS011;58629;48.808;8.820;2023-11-19T06:08:17;0.10;;;0.05;;
70967;SDS011;58629;48.808;8.820;2023-11-19T06:10:43;0.10;;;0.00;;
70967;SDS011;58629;48.808;8.820;2023-11-19T06:13:11;0.65;;;0.15;;
70967;SDS011;58629;48.808;8.820;2023-11-19T06:15:36;1.90;;;0.10;;
70967;SDS011;58629;48.808;8.820;2023-11-19T06:18:02;1.30;;;0.10;;
70967;SDS011;58629;48.808;8.820;2023-11-19T06:20:29;0.63;;;0.05;;
70967;SDS011;58629;48.808;8.820;2023-11-19T06:22:55;0.28;;;0.00;;
70967;SDS011;58629;48.808;8.820;2023-11-19T06:25:21;0.38;;;0.00;;
70967;SDS011;58629;48.808;8.820;2023-11-19T06:27:47;0.13;;;0.00;;
70967;SDS011;58629;48.808;8.820;2023-11-19T06:30:12;0.20;;;0.07;;
70967;SDS011;58629;48.808;8.820;2023-11-19T06:32:38;0.17;;;0.00;;
70967;SDS011;58629;48.808;8.820;2023-11-19T06:35:03;1.75;;;0.00;;
70967;SDS011;58629;48.808;8.820;2023-11-19T06:37:32;0.10;;;0.10;;
70967;SDS011;58629;48.808;8.820;2023-11-19T06:39:57;3.00;;;0.47;;
70967;SDS011;58629;48.808;8.820;2023-11-19T06:42:23;3.03;;;1.57;;
70967;SDS011;58629;48.808;8.820;2023-11-19T06:44:48;1.80;;;0.90;;
70967;SDS011;58629;48.808;8.820;2023-11-19T06:47:13;1.07;;;0.40;;
70967;SDS011;58629;48.808;8.820;2023-11-19T06:49:38;0.67;;;0.20;;
70967;SDS011;58629;48.808;8.820;2023-11-19T06:52:04;0.10;;;0.00;;
70967;SDS011;58629;48.808;8.820;2023-11-19T06:54:29;0.65;;;0.10;;
70967;SDS011;58629;48.808;8.820;2023-11-19T06:56:56;0.03;;;0.00;;
70967;SDS011;58629;48.808;8.820;2023-11-19T06:59:22;0.63;;;0.10;;
70967;SDS011;58629;48.808;8.820;2023-11-19T07:01:47;0.10;;;0.10;;
70967;SDS011;58629;48.808;8.820;2023-11-19T07:04:13;0.30;;;0.10;;
70967;SDS011;58629;48.808;8.820;2023-11-19T07:06:38;0.70;;;0.10;;
70967;SDS011;58629;48.808;8.820;2023-11-19T07:09:06;0.50;;;0.10;;
70967;SDS011;58629;48.808;8.820;2023-11-19T07:11:35;0.20;;;0.10;;
70967;SDS011;58629;48.808;8.820;2023-11-19T07:14:02;0.38;;;0.13;;
70967;SDS011;58629;48.808;8.820;2023-11-19T07:16:28;0.30;;;0.20;;
70967;SDS011;58629;48.808;8.820;2023-11-19T07:18:53;0.10;;;0.03;;
70967;SDS011;58629;48.808;8.820;2023-11-19T07:21:19;0.27;;;0.20;;
70967;SDS011;58629;48.808;8.820;2023-11-19T07:23:44;0.30;;;0.08;;
70967;SDS011;58629;48.808;8.820;2023-11-19T07:26:10;0.20;;;0.07;;
70967;SDS011;58629;48.808;8.820;2023-11-19T07:28:35;0.93;;;0.03;;
70967;SDS011;58629;48.808;8.820;2023-11-19T07:31:01;1.02;;;0.10;;
70967;SDS011;58629;48.808;8.820;2023-11-19T07:33:27;2.07;;;0.40;;
70967;SDS011;58629;48.808;8.820;2023-11-19T07:35:52;1.52;;;0.20;;
70967;SDS011;58629;48.808;8.820;2023-11-19T07:38:17;1.85;;;0.57;;
70967;SDS011;58629;48.808;8.820;2023-11-19T07:40:43;0.70;;;0.27;;
70967;SDS011;58629;48.808;8.820;2023-11-19T07:43:08;1.20;;;0.10;;
70967;SDS011;58629;48.808;8.820;2023-11-19T07:45:33;0.53;;;0.10;;
70967;SDS011;58629;48.808;8.820;2023-11-19T07:47:59;0.30;;;0.13;;
70967;SDS011;58629;48.808;8.820;2023-11-19T07:50:26;2.13;;;0.30;;
70967;SDS011;58629;48.808;8.820;2023-11-19T07:52:51;0.47;;;0.10;;
70967;SDS011;58629;48.808;8.820;2023-11-19T07:55:17;0.83;;;0.07;;
70967;SDS011;58629;48.808;8.820;2023-11-19T07:57:42;0.40;;;0.10;;
70967;SDS011;58629;48.808;8.820;2023-11-19T08:00:07;1.33;;;0.10;;
70967;SDS011;58629;48.808;8.820;2023-11-19T08:02:37;1.67;;;0.17;;
70967;SDS011;58629;48.808;8.820;2023-11-19T08:05:03;4.67;;;0.37;;
70967;SDS011;58629;48.808;8.820;2023-11-19T08:07:29;2.15;;;0.28;;
70967;SDS011;58629;48.808;8.820;2023-11-19T08:09:54;1.77;;;0.30;;
70967;SDS011;58629;48.808;8.820;2023-11-19T08:12:19;2.77;;;0.30;;
70967;SDS011;58629;48.808;8.820;2023-11-19T08:14:45;1.10;;;0.40;;
70967;SDS011;58629;48.808;8.820;2023-11-19T08:17:10;1.40;;;0.40;;
70967;SDS011;58629;48.808;8.820;2023-11-19T08:19:35;0.57;;;0.20;;
70967;SDS011;58629;48.808;8.820;2023-11-19T08:22:01;2.17;;;0.20;;
70967;SDS011;58629;48.808;8.820;2023-11-19T08:24:27;0.30;;;0.10;;
70967;SDS011;58629;48.808;8.820;2023-11-19T08:26:53;0.45;;;0.20;;
70967;SDS011;58629;48.808;8.820;2023-11-19T08:29:18;1.03;;;0.10;;
70967;SDS011;58629;48.808;8.820;2023-11-19T08:31:44;0.38;;;0.10;;
70967;SDS011;58629;48.808;8.820;2023-11-19T08:34:09;0.40;;;0.20;;
70967;SDS011;58629;48.808;8.820;2023-11-19T08:36:36;0.45;;;0.10;;
70967;SDS011;58629;48.808;8.820;2023-11-19T08:39:02;0.87;;;0.10;;
70967;SDS011;58629;48.808;8.820;2023-11-19T08:41:28;0.52;;;0.10;;
70967;SDS011;58629;48.808;8.820;2023-11-19T08:43:53;0.87;;;0.10;;
70967;SDS011;58629;48.808;8.820;2023-11-19T08:46:19;0.75;;;0.10;;
70967;SDS011;58629;48.808;8.820;2023-11-19T08:48:44;0.52;;;0.10;;
70967;SDS011;58629;48.808;8.820;2023-11-19T08:51:11;0.80;;;0.20;;
70967;SDS011;58629;48.808;8.820;2023-11-19T08:53:37;0.63;;;0.10;;
70967;SDS011;58629;48.808;8.820;2023-11-19T08:56:02;0.90;;;0.10;;
70967;SDS011;58629;48.808;8.820;2023-11-19T08:58:28;0.40;;;0.10;;
70967;SDS011;58629;48.808;8.820;2023-11-19T09:00:53;0.73;;;0.10;;
70967;SDS011;58629;48.808;8.820;2023-11-19T09:03:19;0.60;;;0.10;;
70967;SDS011;58629;48.808;8.820;2023-11-19T09:05:45;1.27;;;0.30;;
70967;SDS011;58629;48.808;8.820;2023-11-19T09:08:11;0.30;;;0.10;;
70967;SDS011;58629;48.808;8.820;2023-11-19T09:10:37;0.47;;;0.20;;
70967;SDS011;58629;48.808;8.820;2023-11-19T09:13:02;0.20;;;0.10;;
70967;SDS011;58629;48.808;8.820;2023-11-19T09:15:28;0.45;;;0.10;;
70967;SDS011;58629;48.808;8.820;2023-11-19T09:17:54;0.95;;;0.10;;
70967;SDS011;58629;48.808;8.820;2023-11-19T09:20:20;0.83;;;0.10;;
70967;SDS011;58629;48.808;8.820;2023-11-19T09:22:45;1.00;;;0.20;;
70967;SDS011;58629;48.808;8.820;2023-11-19T09:25:11;0.77;;;0.10;;
70967;SDS011;58629;48.808;8.820;2023-11-19T09:27:36;0.57;;;0.10;;
70967;SDS011;58629;48.808;8.820;2023-11-19T09:30:02;1.17;;;0.10;;
70967;SDS011;58629;48.808;8.820;2023-11-19T09:32:28;0.32;;;0.10;;
70967;SDS011;58629;48.808;8.820;2023-11-19T09:34:54;1.07;;;0.10;;
70967;SDS011;58629;48.808;8.820;2023-11-19T09:37:19;0.85;;;0.10;;
70967;SDS011;58629;48.808;8.820;2023-11-19T09:39:45;0.45;;;0.15;;
70967;SDS011;58629;48.808;8.820;2023-11-19T09:42:10;0.50;;;0.03;;
70967;SDS011;58629;48.808;8.820;2023-11-19T09:44:39;1.33;;;0.20;;
70967;SDS011;58629;48.808;8.820;2023-11-19T09:47:08;1.48;;;0.10;;
70967;SDS011;58629;48.808;8.820;2023-11-19T09:49:35;0.90;;;0.10;;
70967;SDS011;58629;48.808;8.820;2023-11-19T09:52:01;0.47;;;0.13;;
70967;SDS011;58629;48.808;8.820;2023-11-19T09:54:27;1.17;;;0.20;;
70967;SDS011;58629;48.808;8.820;2023-11-19T09:56:53;0.73;;;0.30;;
70967;SDS011;58629;48.808;8.820;2023-11-19T09:59:24;1.27;;;0.30;;
70967;SDS011;58629;48.808;8.820;2023-11-19T10:01:50;0.90;;;0.20;;
70967;SDS011;58629;48.808;8.820;2023-11-19T10:04:16;0.10;;;0.10;;
70967;SDS011;58629;48.808;8.820;2023-11-19T10:06:42;0.37;;;0.10;;
70967;SDS011;58629;48.808;8.820;2023-11-19T10:09:08;0.55;;;0.10;;
70967;SDS011;58629;48.808;8.820;2023-11-19T10:11:33;0.50;;;0.10;;
70967;SDS011;58629;48.808;8.820;2023-11-19T10:13:59;0.75;;;0.20;;
70967;SDS011;58629;48.808;8.820;2023-11-19T10:16:29;0.67;;;0.10;;
70967;SDS011;58629;48.808;8.820;2023-11-19T10:18:57;0.43;;;0.10;;
70967;SDS011;58629;48.808;8.820;2023-11-19T10:21:23;0.93;;;0.10;;
70967;SDS011;58629;48.808;8.820;2023-11-19T10:23:50;0.75;;;0.28;;
70967;SDS011;58629;48.808;8.820;2023-11-19T10:26:17;1.27;;;0.20;;
70967;SDS011;58629;48.808;8.820;2023-11-19T10:28:43;1.00;;;0.10;;
70967;SDS011;58629;48.808;8.820;2023-11-19T10:31:14;0.43;;;0.13;;
70967;SDS011;58629;48.808;8.820;2023-11-19T10:33:41;0.32;;;0.10;;
70967;SDS011;58629;48.808;8.820;2023-11-19T10:36:09;0.77;;;0.17;;
70967;SDS011;58629;48.808;8.820;2023-11-19T10:38:37;0.43;;;0.20;;
70967;SDS011;58629;48.808;8.820;2023-11-19T10:41:03;1.25;;;0.30;;
70967;SDS011;58629;48.808;8.820;2023-11-19T10:43:30;0.40;;;0.20;;
70967;SDS011;58629;48.808;8.820;2023-11-19T10:46:08;0.47;;;0.10;;
70967;SDS011;58629;48.808;8.820;2023-11-19T10:48:35;1.70;;;0.20;;
70967;SDS011;58629;48.808;8.820;2023-11-19T10:51:01;1.10;;;0.20;;
70967;SDS011;58629;48.808;8.820;2023-11-19T10:53:32;0.60;;;0.10;;
70967;SDS011;58629;48.808;8.820;2023-11-19T10:56:01;0.52;;;0.20;;
70967;SDS011;58629;48.808;8.820;2023-11-19T10:58:29;0.25;;;0.10;;
70967;SDS011;58629;48.808;8.820;2023-11-19T11:00:57;1.17;;;0.20;;
70967;SDS011;58629;48.808;8.820;2023-11-19T11:03:29;0.60;;;0.10;;
70967;SDS011;58629;48.808;8.820;2023-11-19T11:06:04;3.15;;;0.65;;
70967;SDS011;58629;48.808;8.820;2023-11-19T11:08:30;0.65;;;0.20;;
70967;SDS011;58629;48.808;8.820;2023-11-19T11:10:56;0.80;;;0.23;;
70967;SDS011;58629;48.808;8.820;2023-11-19T11:13:24;1.33;;;0.30;;
70967;SDS011;58629;48.808;8.820;2023-11-19T11:15:50;1.30;;;0.20;;
70967;SDS011;58629;48.808;8.820;2023-11-19T11:18:16;0.60;;;0.30;;
70967;SDS011;58629;48.808;8.820;2023-11-19T11:20:46;1.55;;;0.20;;
70967;SDS011;58629;48.808;8.820;2023-11-19T11:28:52;1.50;;;0.40;;
70967;SDS011;58629;48.808;8.820;2023-11-19T11:39:34;0.60;;;0.10;;
70967;SDS011;58629;48.808;8.820;2023-11-19T11:50:16;0.65;;;0.20;;
70967;SDS011;58629;48.808;8.820;2023-11-19T11:55:26;0.80;;;0.20;;
70967;SDS011;58629;48.808;8.820;2023-11-19T11:57:52;1.40;;;0.33;;
70967;SDS011;58629;48.808;8.820;2023-11-19T12:00:37;0.20;;;0.10;;
70967;SDS011;58629;48.808;8.820;2023-11-19T12:03:06;1.05;;;0.30;;
70967;SDS011;58629;48.808;8.820;2023-11-19T12:05:32;0.88;;;0.25;;
70967;SDS011;58629;48.808;8.820;2023-11-19T12:08:02;0.55;;;0.20;;
70967;SDS011;58629;48.808;8.820;2023-11-19T12:10:30;1.33;;;0.30;;
70967;SDS011;58629;48.808;8.820;2023-11-19T12:13:00;1.33;;;0.20;;
70967;SDS011;58629;48.808;8.820;2023-11-19T12:15:27;1.50;;;0.30;;
70967;SDS011;58629;48.808;8.820;2023-11-19T12:17:53;0.50;;;0.30;;
70967;SDS011;58629;48.808;8.820;2023-11-19T12:20:23;1.05;;;0.20;;
70967;SDS011;58629;48.808;8.820;2023-11-19T12:22:50;1.65;;;0.30;;
70967;SDS011;58629;48.808;8.820;2023-11-19T12:25:17;2.67;;;0.20;;
70967;SDS011;58629;48.808;8.820;2023-11-19T12:27:47;0.90;;;0.30;;
70967;SDS011;58629;48.808;8.820;2023-11-19T12:30:16;1.13;;;0.20;;
70967;SDS011;58629;48.808;8.820;2023-11-19T12:32:43;0.68;;;0.10;;
70967;SDS011;58629;48.808;8.820;2023-11-19T12:35:10;1.30;;;0.25;;
70967;SDS011;58629;48.808;8.820;2023-11-19T12:37:43;1.50;;;0.30;;
70967;SDS011;58629;48.808;8.820;2023-11-19T12:42:47;1.17;;;0.20;;
70967;SDS011;58629;48.808;8.820;2023-11-19T12:45:13;0.68;;;0.20;;
70967;SDS011;58629;48.808;8.820;2023-11-19T12:47:40;0.73;;;0.20;;
70967;SDS011;58629;48.808;8.820;2023-11-19T12:50:06;2.55;;;0.63;;
70967;SDS011;58629;48.808;8.820;2023-11-19T12:52:33;1.15;;;0.20;;
70967;SDS011;58629;48.808;8.820;2023-11-19T12:54:59;0.93;;;0.20;;
70967;SDS011;58629;48.808;8.820;2023-11-19T12:57:40;0.73;;;0.27;;
70967;SDS011;58629;48.808;8.820;2023-11-19T13:00:07;1.02;;;0.30;;
70967;SDS011;58629;48.808;8.820;2023-11-19T13:02:48;1.30;;;0.20;;
70967;SDS011;58629;48.808;8.820;2023-11-19T13:05:25;0.43;;;0.10;;
70967;SDS011;58629;48.808;8.820;2023-11-19T13:10:25;0.60;;;0.20;;
70967;SDS011;58629;48.808;8.820;2023-11-19T13:13:07;1.50;;;0.20;;
70967;SDS011;58629;48.808;8.820;2023-11-19T13:15:33;0.60;;;0.22;;
70967;SDS011;58629;48.808;8.820;2023-11-19T13:18:00;1.60;;;0.20;;
70967;SDS011;58629;48.808;8.820;2023-11-19T13:20:26;0.45;;;0.20;;
70967;SDS011;58629;48.808;8.820;2023-11-19T13:22:58;0.88;;;0.10;;
70967;SDS011;58629;48.808;8.820;2023-11-19T13:25:24;1.08;;;0.10;;
70967;SDS011;58629;48.808;8.820;2023-11-19T13:27:50;1.10;;;0.10;;
70967;SDS011;58629;48.808;8.820;2023-11-19T13:30:15;0.57;;;0.10;;
70967;SDS011;58629;48.808;8.820;2023-11-19T13:32:41;0.30;;;0.10;;
70967;SDS011;58629;48.808;8.820;2023-11-19T13:35:08;0.57;;;0.15;;
70967;SDS011;58629;48.808;8.820;2023-11-19T13:37:34;0.50;;;0.10;;
70967;SDS011;58629;48.808;8.820;2023-11-19T13:39:59;1.47;;;0.20;;
70967;SDS011;58629;48.808;8.820;2023-11-19T13:42:25;1.27;;;0.30;;
70967;SDS011;58629;48.808;8.820;2023-11-19T13:44:50;2.30;;;0.10;;
70967;SDS011;58629;48.808;8.820;2023-11-19T13:47:16;0.77;;;0.30;;
70967;SDS011;58629;48.808;8.820;2023-11-19T13:49:41;0.83;;;0.27;;
70967;SDS011;58629;48.808;8.820;2023-11-19T13:52:06;0.50;;;0.20;;
70967;SDS011;58629;48.808;8.820;2023-11-19T13:54:32;1.50;;;0.30;;
70967;SDS011;58629;48.808;8.820;2023-11-19T13:56:57;0.83;;;0.50;;
70967;SDS011;58629;48.808;8.820;2023-11-19T13:59:25;0.45;;;0.28;;
70967;SDS011;58629;48.808;8.820;2023-11-19T14:01:51;1.38;;;0.20;;
70967;SDS011;58629;48.808;8.820;2023-11-19T14:04:16;1.67;;;0.30;;
70967;SDS011;58629;48.808;8.820;2023-11-19T14:06:44;1.40;;;0.37;;
70967;SDS011;58629;48.808;8.820;2023-11-19T14:09:10;0.60;;;0.30;;
70967;SDS011;58629;48.808;8.820;2023-11-19T14:11:35;1.33;;;0.23;;
70967;SDS011;58629;48.808;8.820;2023-11-19T14:14:01;1.10;;;0.30;;
70967;SDS011;58629;48.808;8.820;2023-11-19T14:16:26;0.63;;;0.20;;
70967;SDS011;58629;48.808;8.820;2023-11-19T14:18:52;1.02;;;0.20;;
70967;SDS011;58629;48.808;8.820;2023-11-19T14:21:18;0.23;;;0.20;;
70967;SDS011;58629;48.808;8.820;2023-11-19T14:23:43;1.17;;;0.37;;
70967;SDS011;58629;48.808;8.820;2023-11-19T14:26:08;1.37;;;0.30;;
70967;SDS011;58629;48.808;8.820;2023-11-19T14:28:35;1.88;;;0.30;;
70967;SDS011;58629;48.808;8.820;2023-11-19T14:31:00;1.87;;;0.30;;
70967;SDS011;58629;48.808;8.820;2023-11-19T14:33:25;0.82;;;0.20;;
70967;SDS011;58629;48.808;8.820;2023-11-19T14:35:51;0.98;;;0.20;;
70967;SDS011;58629;48.808;8.820;2023-11-19T14:38:17;0.70;;;0.20;;
70967;SDS011;58629;48.808;8.820;2023-11-19T14:40:42;1.02;;;0.20;;
70967;SDS011;58629;48.808;8.820;2023-11-19T14:43:08;0.97;;;0.20;;
70967;SDS011;58629;48.808;8.820;2023-11-19T14:45:35;1.67;;;0.32;;
70967;SDS011;58629;48.808;8.820;2023-11-19T14:48:00;0.53;;;0.23;;
70967;SDS011;58629;48.808;8.820;2023-11-19T14:50:26;0.97;;;0.23;;
70967;SDS011;58629;48.808;8.820;2023-11-19T14:52:52;0.50;;;0.20;;
70967;SDS011;58629;48.808;8.820;2023-11-19T14:55:18;0.63;;;0.30;;
70967;SDS011;58629;48.808;8.820;2023-11-19T14:57:43;0.65;;;0.20;;
70967;SDS011;58629;48.808;8.820;2023-11-19T15:00:09;1.10;;;0.20;;
70967;SDS011;58629;48.808;8.820;2023-11-19T15:02:41;0.93;;;0.20;;
70967;SDS011;58629;48.808;8.820;2023-11-19T15:05:07;1.67;;;0.20;;
70967;SDS011;58629;48.808;8.820;2023-11-19T15:07:35;1.43;;;0.30;;
70967;SDS011;58629;48.808;8.820;2023-11-19T15:10:01;0.85;;;0.13;;
70967;SDS011;58629;48.808;8.820;2023-11-19T15:12:27;1.33;;;0.20;;
70967;SDS011;58629;48.808;8.820;2023-11-19T15:14:53;1.05;;;0.20;;